createdAt,value
2017-04-21T00:00:45.354Z,5.38
2017-04-21T00:01:46.773Z,5.28
2017-04-21T00:02:48.189Z,5.50
2017-04-21T00:03:49.620Z,5.56
2017-04-21T00:04:51.043Z,5.63
2017-04-21T00:05:52.459Z,5.41
2017-04-21T00:06:53.879Z,5.37
2017-04-21T00:07:55.309Z,5.46
2017-04-21T00:08:56.729Z,5.45
2017-04-21T00:09:58.151Z,5.63
2017-04-21T00:10:59.571Z,5.46
2017-04-21T00:12:00.988Z,5.43
2017-04-21T00:13:02.411Z,5.35
2017-04-21T00:14:03.829Z,5.41
2017-04-21T00:15:05.250Z,5.53
2017-04-21T00:16:06.662Z,5.63
2017-04-21T00:17:08.085Z,5.55
2017-04-21T00:18:09.501Z,5.34
2017-04-21T00:19:10.922Z,5.32
2017-04-21T00:20:12.339Z,5.41
2017-04-21T00:21:13.751Z,5.35
2017-04-21T00:22:15.171Z,5.46
2017-04-21T00:23:16.590Z,5.49
2017-04-21T00:24:18.013Z,5.46
2017-04-21T00:25:19.427Z,5.35
2017-04-21T00:26:20.851Z,5.23
2017-04-21T00:27:22.268Z,5.38
2017-04-21T00:28:23.685Z,5.34
2017-04-21T00:29:25.121Z,5.56
2017-04-21T00:30:26.537Z,5.34
2017-04-21T00:31:27.971Z,5.50
2017-04-21T00:32:29.399Z,5.27
2017-04-21T00:33:30.810Z,5.55
2017-04-21T00:34:32.227Z,5.41
2017-04-21T00:35:33.605Z,5.41
2017-04-21T00:36:35.023Z,5.55
2017-04-21T00:37:36.465Z,5.74
2017-04-21T00:38:37.975Z,5.66
2017-04-21T00:39:40.654Z,5.85
2017-04-21T00:40:42.075Z,5.85
2017-04-21T00:41:43.498Z,5.91
2017-04-21T00:42:44.920Z,6.03
2017-04-21T00:43:46.338Z,5.73
2017-04-21T00:44:47.769Z,5.71
2017-04-21T00:45:49.139Z,5.57
2017-04-21T00:46:50.556Z,5.45
2017-04-21T00:47:51.982Z,5.55
2017-04-21T00:48:53.404Z,5.57
2017-04-21T00:49:54.829Z,5.64
2017-04-21T00:50:56.249Z,5.63
2017-04-21T00:51:57.682Z,5.52
2017-04-21T00:53:00.188Z,5.48
2017-04-21T00:54:01.620Z,5.45
2017-04-21T00:55:03.037Z,5.48
2017-04-21T00:56:04.474Z,5.41
2017-04-21T00:57:05.900Z,5.38
2017-04-21T00:58:07.315Z,5.34
2017-04-21T00:59:08.740Z,5.35
2017-04-21T01:00:10.168Z,5.48
2017-04-21T01:01:11.597Z,5.46
2017-04-21T01:02:13.008Z,5.67
2017-04-21T01:03:14.434Z,5.66
2017-04-21T01:04:15.852Z,5.52
2017-04-21T01:05:17.263Z,5.41
2017-04-21T01:06:18.689Z,5.43
2017-04-21T01:07:20.114Z,5.32
2017-04-21T01:08:21.531Z,5.32
2017-04-21T01:09:22.956Z,5.38
2017-04-21T01:10:24.382Z,5.43
2017-04-21T01:11:25.805Z,5.34
2017-04-21T01:12:27.221Z,5.41
2017-04-21T01:13:28.636Z,5.34
2017-04-21T01:14:30.618Z,5.35
2017-04-21T01:15:32.036Z,5.37
2017-04-21T01:16:33.442Z,5.55
2017-04-21T01:17:34.860Z,5.71
2017-04-21T01:18:36.283Z,5.60
2017-04-21T01:19:37.780Z,5.63
2017-04-21T01:20:39.191Z,5.40
2017-04-21T01:21:40.617Z,5.41
2017-04-21T01:22:42.079Z,5.41
2017-04-21T01:23:43.500Z,5.27
2017-04-21T01:24:44.922Z,5.40
2017-04-21T01:25:46.397Z,5.38
2017-04-21T01:26:47.850Z,5.53
2017-04-21T01:27:49.278Z,5.46
2017-04-21T01:28:50.700Z,5.52
2017-04-21T01:29:52.129Z,5.35
2017-04-21T01:30:53.554Z,5.50
2017-04-21T01:31:54.972Z,5.49
2017-04-21T01:32:56.393Z,5.48
2017-04-21T01:33:57.810Z,5.49
2017-04-21T01:34:59.233Z,5.49
2017-04-21T01:36:00.657Z,5.55
2017-04-21T01:37:02.078Z,5.45
2017-04-21T01:38:03.508Z,5.64
2017-04-21T01:39:04.934Z,5.64
2017-04-21T01:40:06.350Z,5.57
2017-04-21T01:41:08.644Z,5.64
2017-04-21T01:42:10.093Z,5.75
2017-04-21T01:43:12.385Z,5.64
2017-04-21T01:44:13.803Z,5.52
2017-04-21T01:45:16.667Z,5.66
2017-04-21T01:46:18.091Z,5.40
2017-04-21T01:47:19.517Z,5.40
2017-04-21T01:48:20.932Z,5.49
2017-04-21T01:49:22.349Z,5.52
2017-04-21T01:50:23.768Z,5.52
2017-04-21T01:51:25.764Z,5.55
2017-04-21T01:52:27.190Z,5.45
2017-04-21T01:53:28.615Z,5.19
2017-04-21T01:54:30.031Z,5.02
2017-04-21T01:55:31.449Z,5.09
2017-04-21T01:56:32.872Z,5.07
2017-04-21T01:57:34.304Z,5.20
2017-04-21T01:58:35.718Z,5.40
2017-04-21T01:59:37.141Z,5.35
2017-04-21T02:00:38.560Z,5.40
2017-04-21T02:01:39.988Z,5.43
2017-04-21T02:02:41.406Z,5.66
2017-04-21T02:03:42.834Z,5.60
2017-04-21T02:04:44.299Z,5.64
2017-04-21T02:05:45.692Z,5.57
2017-04-21T02:06:47.109Z,5.55
2017-04-21T02:07:48.539Z,5.41
2017-04-21T02:08:49.978Z,5.16
2017-04-21T02:09:51.396Z,5.28
2017-04-21T02:10:52.858Z,5.10
2017-04-21T02:11:54.285Z,5.14
2017-04-21T02:12:55.706Z,5.12
2017-04-21T02:13:57.135Z,5.40
2017-04-21T02:14:58.551Z,5.20
2017-04-21T02:15:59.974Z,5.22
2017-04-21T02:17:01.390Z,5.35
2017-04-21T02:18:02.809Z,5.68
2017-04-21T02:19:04.227Z,5.67
2017-04-21T02:20:05.652Z,5.67
2017-04-21T02:21:07.073Z,5.57
2017-04-21T02:22:08.487Z,5.38
2017-04-21T02:23:09.912Z,5.19
2017-04-21T02:24:11.331Z,5.38
2017-04-21T02:25:12.750Z,5.41
2017-04-21T02:26:14.179Z,5.57
2017-04-21T02:27:15.600Z,5.70
2017-04-21T02:28:17.024Z,5.59
2017-04-21T02:29:18.444Z,5.35
2017-04-21T02:30:19.867Z,5.48
2017-04-21T02:31:21.287Z,5.46
2017-04-21T02:32:22.662Z,5.70
2017-04-21T02:33:24.086Z,5.75
2017-04-21T02:34:25.515Z,5.66
2017-04-21T02:35:26.932Z,5.89
2017-04-21T02:36:28.349Z,6.04
2017-04-21T02:37:29.768Z,5.75
2017-04-21T02:38:31.189Z,5.45
2017-04-21T02:39:32.608Z,5.55
2017-04-21T02:40:34.027Z,5.81
2017-04-21T02:41:35.458Z,5.60
2017-04-21T02:42:36.886Z,5.85
2017-04-21T02:43:38.299Z,6.03
2017-04-21T02:44:39.723Z,5.98
2017-04-21T02:45:41.140Z,5.68
2017-04-21T02:46:42.562Z,5.57
2017-04-21T02:47:43.982Z,5.88
2017-04-21T02:48:45.404Z,5.98
2017-04-21T02:49:46.817Z,6.00
2017-04-21T02:50:48.275Z,5.88
2017-04-21T02:51:49.701Z,5.89
2017-04-21T02:52:51.081Z,5.81
2017-04-21T02:53:52.500Z,5.57
2017-04-21T02:54:53.924Z,5.52
2017-04-21T02:55:55.351Z,5.49
2017-04-21T02:56:56.777Z,5.59
2017-04-21T02:57:58.327Z,5.35
2017-04-21T02:58:59.724Z,5.28
2017-04-21T03:00:01.142Z,5.20
2017-04-21T03:01:02.561Z,5.22
2017-04-21T03:02:03.984Z,5.23
2017-04-21T03:03:05.400Z,5.32
2017-04-21T03:04:06.815Z,5.43
2017-04-21T03:05:08.235Z,5.63
2017-04-21T03:06:09.657Z,5.96
2017-04-21T03:07:11.076Z,6.09
2017-04-21T03:08:12.499Z,6.30
2017-04-21T03:09:13.929Z,6.40
2017-04-21T03:10:15.346Z,6.21
2017-04-21T03:11:16.768Z,6.04
2017-04-21T03:12:18.188Z,6.07
2017-04-21T03:13:19.564Z,6.18
2017-04-21T03:14:20.989Z,6.26
2017-04-21T03:15:22.404Z,6.38
2017-04-21T03:16:23.829Z,6.35
2017-04-21T03:17:25.249Z,6.41
2017-04-21T03:18:26.668Z,6.47
2017-04-21T03:19:28.090Z,6.41
2017-04-21T03:20:29.513Z,6.46
2017-04-21T03:21:30.923Z,6.38
2017-04-21T03:22:32.348Z,6.48
2017-04-21T03:23:33.780Z,6.59
2017-04-21T03:24:35.145Z,6.59
2017-04-21T03:25:36.568Z,6.51
2017-04-21T03:26:37.984Z,6.54
2017-04-21T03:27:39.398Z,6.61
2017-04-21T03:28:40.820Z,6.48
2017-04-21T03:29:42.242Z,6.50
2017-04-21T03:30:43.655Z,6.62
2017-04-21T03:31:45.078Z,6.69
2017-04-21T03:32:46.504Z,6.73
2017-04-21T03:33:47.946Z,6.63
2017-04-21T03:34:49.367Z,6.53
2017-04-21T03:35:50.788Z,6.48
2017-04-21T03:36:52.211Z,6.59
2017-04-21T03:37:53.638Z,6.54
2017-04-21T03:38:55.049Z,6.61
2017-04-21T03:39:56.465Z,6.66
2017-04-21T03:40:57.879Z,6.68
2017-04-21T03:41:59.308Z,6.72
2017-04-21T03:43:00.728Z,6.80
2017-04-21T03:44:03.014Z,6.68
2017-04-21T03:45:04.431Z,6.91
2017-04-21T03:46:05.851Z,7.08
2017-04-21T03:47:07.268Z,6.91
2017-04-21T03:48:08.692Z,6.61
2017-04-21T03:49:10.111Z,6.59
2017-04-21T03:50:11.530Z,6.72
2017-04-21T03:51:12.968Z,6.89
2017-04-21T03:52:14.381Z,6.97
2017-04-21T03:53:15.810Z,6.89
2017-04-21T03:54:17.228Z,7.04
2017-04-21T03:55:18.648Z,7.07
2017-04-21T03:56:20.864Z,7.12
2017-04-21T03:57:22.284Z,7.09
2017-04-21T03:58:23.701Z,7.13
2017-04-21T03:59:25.125Z,7.09
2017-04-21T04:00:26.547Z,7.23
2017-04-21T04:01:27.962Z,7.22
2017-04-21T04:02:29.386Z,7.20
2017-04-21T04:03:30.800Z,7.31
2017-04-21T04:04:32.224Z,7.26
2017-04-21T04:05:34.380Z,7.19
2017-04-21T04:06:35.803Z,7.32
2017-04-21T04:07:37.221Z,7.29
2017-04-21T04:08:38.651Z,7.38
2017-04-21T04:09:40.074Z,7.44
2017-04-21T04:10:41.498Z,7.42
2017-04-21T04:11:42.922Z,7.38
2017-04-21T04:12:44.341Z,7.45
2017-04-21T04:13:45.770Z,7.44
2017-04-21T04:14:47.193Z,7.44
2017-04-21T04:15:48.620Z,7.47
2017-04-21T04:16:50.046Z,7.37
2017-04-21T04:17:51.421Z,7.44
2017-04-21T04:18:52.836Z,7.45
2017-04-21T04:19:54.261Z,7.75
2017-04-21T04:20:55.689Z,7.72
2017-04-21T04:21:57.108Z,7.66
2017-04-21T04:22:58.534Z,7.82
2017-04-21T04:23:59.960Z,7.60
2017-04-21T04:25:01.382Z,7.81
2017-04-21T04:26:02.807Z,7.85
2017-04-21T04:27:04.231Z,7.79
2017-04-21T04:28:05.653Z,7.82
2017-04-21T04:29:07.075Z,7.90
2017-04-21T04:30:08.498Z,7.79
2017-04-21T04:31:09.921Z,7.85
2017-04-21T04:32:11.339Z,7.82
2017-04-21T04:33:12.756Z,7.99
2017-04-21T04:34:14.184Z,7.85
2017-04-21T04:35:15.595Z,7.92
2017-04-21T04:36:17.020Z,8.03
2017-04-21T04:37:18.453Z,7.96
2017-04-21T04:38:19.884Z,8.10
2017-04-21T04:39:21.320Z,8.03
2017-04-21T04:40:22.720Z,7.96
2017-04-21T04:41:24.142Z,7.99
2017-04-21T04:42:25.574Z,8.14
2017-04-21T04:43:27.003Z,8.02
2017-04-21T04:44:28.427Z,8.10
2017-04-21T04:45:29.916Z,8.02
2017-04-21T04:46:31.340Z,8.18
2017-04-21T04:47:32.766Z,8.30
2017-04-21T04:48:34.192Z,8.20
2017-04-21T04:49:35.613Z,8.07
2017-04-21T04:50:37.033Z,8.18
2017-04-21T04:51:38.456Z,8.18
2017-04-21T04:52:39.893Z,8.26
2017-04-21T04:53:41.311Z,8.32
2017-04-21T04:54:42.729Z,8.36
2017-04-21T04:55:44.161Z,8.33
2017-04-21T04:56:45.583Z,8.18
2017-04-21T04:57:47.011Z,8.32
2017-04-21T04:58:48.447Z,8.37
2017-04-21T04:59:49.869Z,8.44
2017-04-21T05:00:51.261Z,8.39
2017-04-21T05:01:52.679Z,8.29
2017-04-21T05:02:54.117Z,8.32
2017-04-21T05:03:55.542Z,8.39
2017-04-21T05:04:56.959Z,8.33
2017-04-21T05:05:58.382Z,8.35
2017-04-21T05:06:59.810Z,8.32
2017-04-21T05:08:01.236Z,8.36
2017-04-21T05:09:02.658Z,8.33
2017-04-21T05:10:04.081Z,8.42
2017-04-21T05:11:05.502Z,8.54
2017-04-21T05:12:06.936Z,8.35
2017-04-21T05:13:08.361Z,8.42
2017-04-21T05:14:09.781Z,8.45
2017-04-21T05:15:11.200Z,8.35
2017-04-21T05:16:12.625Z,8.37
2017-04-21T05:17:14.047Z,8.33
2017-04-21T05:18:15.474Z,8.30
2017-04-21T05:19:16.901Z,8.50
2017-04-21T05:20:18.327Z,8.53
2017-04-21T05:21:19.755Z,8.65
2017-04-21T05:22:21.187Z,8.60
2017-04-21T05:23:22.611Z,8.60
2017-04-21T05:24:24.036Z,8.60
2017-04-21T05:25:25.461Z,8.48
2017-04-21T05:26:26.888Z,8.62
2017-04-21T05:27:28.310Z,8.53
2017-04-21T05:28:29.732Z,8.63
2017-04-21T05:29:31.171Z,8.42
2017-04-21T05:30:32.592Z,8.51
2017-04-21T05:31:34.024Z,8.55
2017-04-21T05:32:35.401Z,8.50
2017-04-21T05:33:36.827Z,8.53
2017-04-21T05:34:38.250Z,8.68
2017-04-21T05:35:39.672Z,8.55
2017-04-21T05:36:41.098Z,8.63
2017-04-21T05:37:42.523Z,8.72
2017-04-21T05:38:43.947Z,8.60
2017-04-21T05:39:45.371Z,8.71
2017-04-21T05:40:46.805Z,8.75
2017-04-21T05:41:48.229Z,8.62
2017-04-21T05:42:49.654Z,8.86
2017-04-21T05:43:51.088Z,8.73
2017-04-21T05:44:52.509Z,8.65
2017-04-21T05:45:53.943Z,8.66
2017-04-21T05:46:55.367Z,8.63
2017-04-21T05:47:56.790Z,8.62
2017-04-21T05:48:58.214Z,8.60
2017-04-21T05:49:59.642Z,8.71
2017-04-21T05:51:01.071Z,8.75
2017-04-21T05:52:02.501Z,8.78
2017-04-21T05:53:03.928Z,8.66
2017-04-21T05:54:05.351Z,8.51
2017-04-21T05:55:06.908Z,8.75
2017-04-21T05:56:08.343Z,8.72
2017-04-21T05:57:09.771Z,8.69
2017-04-21T05:58:11.215Z,8.51
2017-04-21T05:59:12.642Z,8.57
2017-04-21T06:00:14.078Z,8.73
2017-04-21T06:01:15.500Z,8.50
2017-04-21T06:02:16.926Z,8.51
2017-04-21T06:03:18.349Z,8.54
2017-04-21T06:04:19.797Z,8.55
2017-04-21T06:05:21.194Z,8.72
2017-04-21T06:06:22.615Z,8.83
2017-04-21T06:07:24.031Z,8.63
2017-04-21T06:08:25.454Z,8.65
2017-04-21T06:09:26.875Z,8.62
2017-04-21T06:10:28.304Z,8.63
2017-04-21T06:11:29.733Z,8.60
2017-04-21T06:12:31.152Z,8.50
2017-04-21T06:13:32.957Z,8.68
2017-04-21T06:14:34.378Z,8.76
2017-04-21T06:15:35.802Z,8.73
2017-04-21T06:16:37.227Z,8.83
2017-04-21T06:17:38.653Z,8.78
2017-04-21T06:18:40.096Z,8.97
2017-04-21T06:19:41.523Z,8.78
2017-04-21T06:20:42.943Z,8.90
2017-04-21T06:21:44.379Z,9.10
2017-04-21T06:22:45.795Z,9.20
2017-04-21T06:23:47.228Z,9.30
2017-04-21T06:24:48.651Z,9.20
2017-04-21T06:25:50.072Z,9.24
2017-04-21T06:26:51.493Z,9.13
2017-04-21T06:27:52.932Z,9.01
2017-04-21T06:28:54.376Z,9.23
2017-04-21T06:29:55.801Z,9.09
2017-04-21T06:30:57.235Z,9.23
2017-04-21T06:31:58.657Z,9.13
2017-04-21T06:33:00.081Z,9.18
2017-04-21T06:34:01.514Z,9.13
2017-04-21T06:35:02.894Z,9.10
2017-04-21T06:36:04.320Z,9.23
2017-04-21T06:37:05.752Z,9.30
2017-04-21T06:38:07.182Z,9.20
2017-04-21T06:39:08.621Z,9.05
2017-04-21T06:40:10.037Z,9.09
2017-04-21T06:41:11.462Z,9.18
2017-04-21T06:42:12.888Z,9.18
2017-04-21T06:43:14.319Z,9.28
2017-04-21T06:44:15.753Z,9.53
2017-04-21T06:45:17.199Z,9.85
2017-04-21T06:46:18.580Z,9.73
2017-04-21T06:47:20.005Z,9.61
2017-04-21T06:48:21.429Z,9.70
2017-04-21T06:49:22.858Z,9.78
2017-04-21T06:50:24.282Z,9.70
2017-04-21T06:51:25.709Z,9.71
2017-04-21T06:52:27.134Z,9.68
2017-04-21T06:53:28.570Z,9.63
2017-04-21T06:54:30.003Z,9.64
2017-04-21T06:55:31.432Z,9.61
2017-04-21T06:56:32.854Z,9.78
2017-04-21T06:57:34.349Z,9.61
2017-04-21T06:58:35.774Z,9.64
2017-04-21T06:59:37.201Z,9.76
2017-04-21T07:00:38.630Z,9.73
2017-04-21T07:01:40.059Z,9.76
2017-04-21T07:02:41.491Z,9.82
2017-04-21T07:03:42.916Z,9.85
2017-04-21T07:04:44.343Z,9.82
2017-04-21T07:05:45.846Z,9.73
2017-04-21T07:06:47.272Z,9.64
2017-04-21T07:07:48.703Z,9.58
2017-04-21T07:08:50.215Z,9.61
2017-04-21T07:09:51.650Z,9.58
2017-04-21T07:10:53.083Z,9.53
2017-04-21T07:11:54.516Z,9.42
2017-04-21T07:12:55.944Z,9.60
2017-04-21T07:13:57.376Z,9.40
2017-04-21T07:14:58.806Z,9.28
2017-04-21T07:16:00.270Z,9.50
2017-04-21T07:17:01.698Z,9.40
2017-04-21T07:18:03.124Z,9.56
2017-04-21T07:19:04.561Z,9.64
2017-04-21T07:20:05.992Z,9.68
2017-04-21T07:21:07.425Z,9.66
2017-04-21T07:22:08.864Z,9.73
2017-04-21T07:23:10.302Z,9.85
2017-04-21T07:24:11.744Z,10.00
2017-04-21T07:25:13.174Z,9.83
2017-04-21T07:26:14.600Z,9.81
2017-04-21T07:27:16.036Z,9.85
2017-04-21T07:28:17.461Z,9.94
2017-04-21T07:29:18.892Z,10.00
2017-04-21T07:30:20.317Z,10.19
2017-04-21T07:31:21.754Z,10.34
2017-04-21T07:32:23.183Z,10.40
2017-04-21T07:33:24.614Z,10.47
2017-04-21T07:34:26.054Z,10.39
2017-04-21T07:35:27.482Z,10.37
2017-04-21T07:36:28.909Z,10.47
2017-04-21T07:37:30.336Z,10.60
2017-04-21T07:38:31.769Z,10.60
2017-04-21T07:39:33.195Z,10.56
2017-04-21T07:40:34.620Z,10.37
2017-04-21T07:41:36.057Z,10.42
2017-04-21T07:42:37.486Z,10.47
2017-04-21T07:43:38.868Z,10.25
2017-04-21T07:44:40.294Z,10.26
2017-04-21T07:45:41.734Z,10.28
2017-04-21T07:46:43.157Z,10.36
2017-04-21T07:47:44.590Z,10.37
2017-04-21T07:48:46.022Z,10.42
2017-04-21T07:49:47.449Z,10.42
2017-04-21T07:50:48.885Z,10.33
2017-04-21T07:51:50.314Z,10.42
2017-04-21T07:52:51.750Z,10.42
2017-04-21T07:53:53.179Z,10.34
2017-04-21T07:54:54.610Z,10.52
2017-04-21T07:55:56.037Z,10.36
2017-04-21T07:56:57.468Z,10.56
2017-04-21T07:57:58.892Z,10.51
2017-04-21T07:59:00.329Z,10.56
2017-04-21T08:00:23.171Z,10.60
2017-04-21T08:02:04.521Z,10.62
2017-04-21T08:03:05.958Z,10.52
2017-04-21T08:04:07.378Z,10.46
2017-04-21T08:05:08.812Z,10.47
2017-04-21T08:06:10.239Z,10.70
2017-04-21T08:07:11.672Z,10.46
2017-04-21T08:08:13.101Z,10.36
2017-04-21T08:09:14.535Z,10.42
2017-04-21T08:10:15.961Z,10.42
2017-04-21T08:11:17.389Z,10.39
2017-04-21T08:12:18.819Z,10.46
2017-04-21T08:13:20.249Z,10.58
2017-04-21T08:14:22.313Z,10.52
2017-04-21T08:15:23.742Z,10.51
2017-04-21T08:16:25.174Z,10.55
2017-04-21T08:17:26.605Z,10.55
2017-04-21T08:18:28.040Z,10.51
2017-04-21T08:19:29.475Z,10.43
2017-04-21T08:20:30.899Z,10.56
2017-04-21T08:21:32.345Z,10.55
2017-04-21T08:22:33.771Z,10.53
2017-04-21T08:23:35.205Z,10.46
2017-04-21T08:24:36.637Z,10.40
2017-04-21T08:25:38.066Z,10.32
2017-04-21T08:26:39.494Z,10.34
2017-04-21T08:27:40.923Z,10.52
2017-04-21T08:28:42.348Z,10.40
2017-04-21T08:29:43.775Z,10.33
2017-04-21T08:30:45.208Z,10.33
2017-04-21T08:31:47.286Z,10.42
2017-04-21T08:32:48.716Z,10.44
2017-04-21T08:33:50.139Z,10.47
2017-04-21T08:34:51.567Z,10.52
2017-04-21T08:35:52.994Z,10.36
2017-04-21T08:36:54.421Z,10.36
2017-04-21T08:37:55.867Z,10.43
2017-04-21T08:38:57.294Z,10.47
2017-04-21T08:39:58.723Z,10.58
2017-04-21T08:41:00.155Z,10.42
2017-04-21T08:42:01.589Z,10.37
2017-04-21T08:43:02.980Z,10.44
2017-04-21T08:44:04.421Z,10.43
2017-04-21T08:45:05.945Z,10.73
2017-04-21T08:46:07.386Z,10.59
2017-04-21T08:47:08.794Z,10.55
2017-04-21T08:48:10.269Z,10.53
2017-04-21T08:49:11.722Z,10.65
2017-04-21T08:50:13.154Z,10.46
2017-04-21T08:51:14.582Z,10.55
2017-04-21T08:52:16.010Z,10.78
2017-04-21T08:53:17.471Z,10.65
2017-04-21T08:54:18.890Z,10.81
2017-04-21T08:55:20.318Z,10.83
2017-04-21T08:56:21.756Z,10.80
2017-04-21T08:57:23.185Z,11.06
2017-04-21T08:58:24.625Z,11.09
2017-04-21T08:59:26.058Z,11.10
2017-04-21T09:00:27.490Z,11.17
2017-04-21T09:01:28.918Z,11.47
2017-04-21T09:02:30.352Z,11.54
2017-04-21T09:03:31.787Z,11.57
2017-04-21T09:04:33.213Z,11.61
2017-04-21T09:05:35.299Z,11.80
2017-04-21T09:06:36.746Z,11.61
2017-04-21T09:07:38.181Z,11.78
2017-04-21T09:08:39.621Z,11.74
2017-04-21T09:09:41.046Z,11.72
2017-04-21T09:10:42.480Z,11.82
2017-04-21T09:11:43.911Z,11.64
2017-04-21T09:12:45.344Z,11.64
2017-04-21T09:13:46.781Z,11.82
2017-04-21T09:14:48.206Z,11.77
2017-04-21T09:15:49.633Z,11.64
2017-04-21T09:16:51.067Z,11.67
2017-04-21T09:17:52.497Z,11.62
2017-04-21T19:12:14.156Z,13.03
2017-04-21T19:13:15.535Z,13.07
2017-04-21T19:14:16.964Z,13.20
2017-04-21T19:15:18.396Z,13.06
2017-04-21T19:16:19.824Z,13.11
2017-04-21T19:17:21.264Z,13.15
2017-04-21T19:18:22.693Z,12.97
2017-04-21T19:19:24.116Z,12.97
2017-04-21T19:20:25.540Z,12.97
2017-04-21T19:21:26.983Z,13.00
2017-04-21T19:22:28.416Z,13.18
2017-04-21T19:23:29.839Z,13.04
2017-04-21T19:24:31.272Z,13.09
2017-04-21T19:25:32.704Z,12.99
2017-04-21T19:26:34.130Z,12.96
2017-04-21T19:27:35.562Z,12.84
2017-04-21T19:28:36.994Z,12.89
2017-04-21T19:29:38.412Z,12.78
2017-04-21T19:30:39.843Z,12.81
2017-04-21T19:31:41.218Z,12.81
2017-04-21T19:32:42.649Z,12.92
2017-04-21T19:33:44.085Z,12.84
2017-04-21T19:34:45.517Z,12.87
2017-04-21T19:35:47.732Z,12.97
2017-04-21T19:36:49.168Z,12.84
2017-04-21T19:37:50.584Z,12.77
2017-04-21T19:38:52.021Z,12.84
2017-04-21T19:39:53.452Z,12.75
2017-04-21T19:40:54.874Z,12.84
2017-04-21T19:41:56.267Z,12.79
2017-04-21T19:42:57.693Z,12.78
2017-04-21T19:43:59.118Z,12.89
2017-04-21T19:45:00.544Z,12.82
2017-04-21T19:46:01.974Z,12.78
2017-04-21T19:47:03.410Z,12.71
2017-04-21T19:48:04.834Z,12.79
2017-04-21T19:49:06.262Z,12.75
2017-04-21T19:50:07.690Z,12.70
2017-04-21T19:51:09.123Z,12.77
2017-04-21T19:52:10.549Z,12.66
2017-04-21T19:53:11.982Z,12.70
2017-04-21T19:54:13.417Z,12.66
2017-04-21T19:55:14.844Z,12.63
2017-04-21T19:56:16.273Z,12.78
2017-04-21T19:57:17.716Z,12.84
2017-04-21T19:58:19.142Z,12.85
2017-04-21T19:59:20.567Z,12.84
2017-04-21T20:00:22.001Z,12.78
2017-04-21T20:01:23.431Z,12.69
2017-04-21T20:02:24.857Z,12.57
2017-04-21T20:03:26.288Z,12.66
2017-04-21T20:04:27.717Z,12.46
2017-04-21T20:05:29.154Z,12.46
2017-04-21T20:06:30.577Z,12.54
2017-04-21T20:07:32.008Z,12.56
2017-04-21T20:08:33.435Z,12.54
2017-04-21T20:09:34.870Z,12.59
2017-04-21T20:10:36.295Z,12.62
2017-04-21T20:11:37.723Z,12.46
2017-04-21T20:12:39.158Z,12.46
2017-04-21T20:13:40.588Z,12.57
2017-04-21T20:14:42.022Z,12.45
2017-04-21T20:15:43.452Z,12.79
2017-04-21T20:16:44.901Z,12.48
2017-04-21T20:17:46.329Z,12.44
2017-04-21T20:18:47.755Z,12.42
2017-04-21T20:19:49.185Z,12.45
2017-04-21T20:20:50.564Z,12.37
2017-04-21T20:21:52.000Z,12.37
2017-04-21T20:22:53.421Z,12.38
2017-04-21T20:23:54.847Z,12.41
2017-04-21T20:24:56.283Z,12.54
2017-04-21T20:25:57.705Z,12.51
2017-04-21T20:26:59.147Z,12.52
2017-04-21T20:28:00.572Z,12.46
2017-04-21T20:29:02.000Z,12.44
2017-04-21T20:30:03.429Z,12.49
2017-04-21T20:31:04.852Z,12.52
2017-04-21T20:32:06.284Z,12.34
2017-04-21T20:33:07.711Z,12.57
2017-04-21T20:34:09.144Z,12.67
2017-04-21T20:35:10.573Z,12.49
2017-04-21T20:36:11.995Z,12.54
2017-04-21T20:37:13.421Z,12.51
2017-04-21T20:38:14.846Z,12.38
2017-04-21T20:39:16.271Z,12.31
2017-04-21T20:40:17.700Z,12.31
2017-04-21T20:41:19.127Z,12.37
2017-04-21T20:42:20.550Z,12.46
2017-04-21T20:43:21.985Z,12.57
2017-04-21T20:44:23.413Z,12.30
2017-04-21T20:45:24.846Z,12.45
2017-04-21T20:46:26.274Z,12.21
2017-04-21T20:47:27.714Z,12.30
2017-04-21T20:48:30.048Z,12.33
2017-04-21T20:49:31.490Z,12.21
2017-04-21T20:50:33.519Z,12.21
2017-04-21T20:51:34.911Z,12.33
2017-04-21T20:52:36.339Z,12.37
2017-04-21T20:53:37.783Z,12.37
2017-04-21T20:54:39.212Z,12.30
2017-04-21T20:55:40.654Z,12.31
2017-04-21T20:56:42.083Z,12.34
2017-04-21T20:57:44.443Z,12.24
2017-04-21T20:58:45.877Z,12.21
2017-04-21T20:59:48.157Z,12.27
2017-04-21T21:00:49.592Z,12.19
2017-04-21T21:01:51.018Z,12.24
2017-04-21T21:02:52.453Z,12.23
2017-04-21T21:03:54.510Z,12.23
2017-04-21T21:04:55.942Z,12.21
2017-04-21T21:05:57.999Z,12.24
2017-04-21T21:07:00.020Z,12.06
2017-04-21T21:08:02.371Z,12.08
2017-04-21T21:09:02.824Z,12.21
2017-04-21T21:10:05.054Z,12.16
2017-04-21T21:11:06.484Z,12.13
2017-04-21T21:12:08.576Z,12.21
2017-04-21T21:13:10.644Z,12.26
2017-04-21T21:14:12.716Z,12.06
2017-04-21T21:15:15.122Z,12.21
2017-04-21T21:16:17.110Z,12.16
2017-04-21T21:17:19.512Z,12.08
2017-04-21T21:18:20.943Z,12.05
2017-04-21T21:19:23.334Z,11.99
2017-04-21T21:20:24.764Z,12.06
2017-04-21T21:21:26.749Z,11.93
2017-04-21T21:22:28.953Z,11.97
2017-04-21T21:23:31.127Z,12.11
2017-04-21T21:24:32.558Z,12.19
2017-04-21T21:25:33.998Z,12.06
2017-04-21T21:26:35.426Z,12.02
2017-04-21T21:27:37.440Z,12.11
2017-04-21T21:28:38.874Z,12.06
2017-04-21T21:29:40.323Z,12.08
2017-04-21T21:30:41.749Z,12.04
2017-04-21T21:31:43.183Z,12.11
2017-04-21T21:32:45.567Z,12.12
2017-04-21T21:33:47.000Z,12.06
2017-04-21T21:34:48.427Z,12.05
2017-04-21T21:35:49.935Z,12.13
2017-04-21T21:36:51.375Z,12.11
2017-04-21T21:37:52.805Z,12.04
2017-04-21T21:38:54.243Z,12.09
2017-04-21T21:39:56.647Z,12.06
2017-04-21T21:40:58.088Z,12.08
2017-04-21T21:42:00.205Z,12.09
2017-04-21T21:43:02.573Z,12.08
2017-04-21T21:44:04.553Z,12.08
2017-04-21T21:45:05.998Z,12.06
2017-04-21T21:46:07.437Z,12.12
2017-04-21T21:47:08.870Z,11.93
2017-04-21T21:48:10.318Z,11.89
2017-04-21T21:49:12.568Z,11.87
2017-04-21T21:50:14.664Z,11.93
2017-04-21T21:51:16.810Z,11.97
2017-04-21T21:52:18.243Z,12.04
2017-04-21T21:53:19.674Z,11.93
2017-04-21T21:54:21.098Z,11.97
2017-04-21T21:55:23.076Z,11.96
2017-04-21T21:56:24.511Z,12.16
2017-04-21T21:57:26.795Z,12.05
2017-04-21T21:58:29.082Z,12.04
2017-04-21T21:59:31.340Z,12.05
2017-04-21T22:00:32.770Z,11.94
2017-04-21T22:01:34.213Z,11.78
2017-04-21T22:02:35.644Z,11.93
2017-04-21T22:03:37.021Z,11.87
2017-04-21T22:04:39.343Z,11.87
2017-04-21T22:05:40.773Z,11.97
2017-04-21T22:06:42.204Z,11.94
2017-04-21T22:07:43.628Z,11.89
2017-04-21T22:08:45.055Z,11.97
2017-04-21T22:09:46.498Z,11.89
2017-04-21T22:10:47.923Z,11.93
2017-04-21T22:11:49.355Z,11.87
2017-04-21T22:12:50.789Z,11.77
2017-04-21T22:13:52.223Z,11.96
2017-04-21T22:14:53.645Z,11.96
2017-04-21T22:15:55.069Z,11.89
2017-04-21T22:16:56.508Z,11.78
2017-04-21T22:17:57.922Z,11.80
2017-04-21T22:18:59.367Z,11.85
2017-04-21T22:20:00.791Z,11.93
2017-04-21T22:21:02.219Z,11.99
2017-04-21T22:22:03.653Z,11.99
2017-04-21T22:23:05.090Z,11.93
2017-04-21T22:24:06.516Z,11.89
2017-04-21T22:25:07.983Z,11.89
2017-04-21T22:26:09.417Z,11.86
2017-04-21T22:27:10.846Z,11.89
2017-04-21T22:28:12.351Z,11.90
2017-04-21T22:29:13.794Z,11.87
2017-04-21T22:30:15.225Z,11.86
2017-04-21T22:31:16.649Z,11.87
2017-04-21T22:32:18.089Z,11.83
2017-04-21T22:33:19.526Z,11.86
2017-04-21T22:34:20.953Z,11.83
2017-04-21T22:35:22.382Z,11.82
2017-04-21T22:36:23.807Z,12.01
2017-04-21T22:37:25.238Z,11.93
2017-04-21T22:38:26.663Z,11.97
2017-04-21T22:39:28.093Z,11.86
2017-04-21T22:40:29.515Z,11.97
2017-04-21T22:41:30.938Z,11.83
2017-04-21T22:42:32.363Z,11.68
2017-04-21T22:43:33.787Z,11.80
2017-04-21T22:44:35.165Z,11.86
2017-04-21T22:45:36.589Z,11.86
2017-04-21T22:46:38.014Z,11.96
2017-04-21T22:47:39.451Z,11.96
2017-04-21T22:48:40.876Z,12.06
2017-04-21T22:49:42.311Z,11.93
2017-04-21T22:50:43.734Z,12.05
2017-04-21T22:51:45.162Z,11.97
2017-04-21T22:52:46.598Z,11.99
2017-04-21T22:53:48.025Z,11.94
2017-04-21T22:54:49.453Z,11.90
2017-04-21T22:55:50.899Z,11.82
2017-04-21T22:56:52.328Z,11.85
2017-04-21T22:57:53.738Z,11.85
2017-04-21T22:58:55.189Z,11.78
2017-04-21T22:59:56.615Z,11.85
2017-04-21T23:00:58.045Z,11.57
2017-04-21T23:01:59.485Z,11.36
2017-04-21T23:03:00.907Z,11.34
2017-04-21T23:04:02.327Z,11.41
2017-04-21T23:05:03.751Z,11.32
2017-04-21T23:06:05.181Z,11.24
2017-04-21T23:07:06.618Z,11.13
2017-04-21T23:08:08.048Z,11.17
2017-04-21T23:09:09.494Z,11.34
2017-04-21T23:10:10.922Z,11.20
2017-04-21T23:11:12.345Z,11.34
2017-04-21T23:12:13.780Z,11.24
2017-04-21T23:13:15.204Z,11.35
2017-04-21T23:14:16.636Z,11.32
2017-04-21T23:15:18.062Z,11.27
2017-04-21T23:16:19.483Z,11.14
2017-04-21T23:17:20.916Z,11.16
2017-04-21T23:18:22.342Z,11.09
2017-04-21T23:19:23.770Z,11.13
2017-04-21T23:20:25.192Z,11.14